Time;durP1;ratioP1;P1;durP2;ratioP2;P2;SDS_P1;SDS_P2;PMS_P1;PMS_P2;Temp;Humidity;BMP_temperature;BMP_pressure;BME280_temperature;BME280_humidity;BME280_pressure;Samples;Min_cycle;Max_cycle;Signal;HPM_P1;HPM_P2
2022/11/20 00:01:34;;;;;;;106.37;36.03;;;3.50;99.90;;;;;;4979914;28;20892;-56
2022/11/20 00:04:03;;;;;;;101.80;35.27;;;3.40;99.90;;;;;;4980570;28;20194;-55
2022/11/20 00:06:31;;;;;;;105.70;36.37;;;3.40;99.90;;;;;;4978033;28;20221;-57
2022/11/20 00:09:02;;;;;;;102.53;35.33;;;3.40;99.90;;;;;;4972994;28;20261;-56
2022/11/20 00:11:32;;;;;;;115.50;37.13;;;3.30;99.90;;;;;;4971110;28;20196;-56
2022/11/20 00:14:02;;;;;;;112.10;36.50;;;3.20;99.90;;;;;;4980882;28;20223;-55
2022/11/20 00:16:33;;;;;;;119.97;37.77;;;3.20;99.90;;;;;;4982013;28;20590;-55
2022/11/20 00:19:02;;;;;;;113.27;37.83;;;3.10;99.90;;;;;;4962584;28;20235;-56
2022/11/20 00:21:31;;;;;;;109.57;35.60;;;3.10;99.90;;;;;;4963917;28;20207;-56
2022/11/20 00:24:01;;;;;;;111.97;37.20;;;3.20;99.90;;;;;;5005111;28;20192;-57
2022/11/20 00:26:30;;;;;;;108.13;36.17;;;3.20;99.90;;;;;;4975657;28;20213;-57
2022/11/20 00:29:00;;;;;;;97.63;34.80;;;3.20;99.90;;;;;;4982359;28;20230;-56
2022/11/20 00:31:29;;;;;;;118.50;38.17;;;3.30;99.90;;;;;;4975345;28;20201;-57
2022/11/20 00:33:57;;;;;;;105.13;37.33;;;3.30;99.90;;;;;;4981434;28;20207;-57
2022/11/20 00:36:28;;;;;;;101.23;37.73;;;3.30;99.90;;;;;;4980247;28;20210;-56
2022/11/20 00:38:58;;;;;;;102.23;35.63;;;3.20;99.90;;;;;;4977505;28;20204;-57
2022/11/20 00:41:29;;;;;;;103.10;36.53;;;3.20;99.90;;;;;;4975127;28;20195;-55
2022/11/20 00:43:57;;;;;;;100.23;35.03;;;3.20;99.90;;;;;;4983504;28;20195;-57
2022/11/20 00:46:27;;;;;;;92.90;34.23;;;3.30;99.90;;;;;;4973125;28;20204;-56
2022/11/20 00:48:56;;;;;;;98.03;35.87;;;3.30;99.90;;;;;;4966389;28;20234;-55
2022/11/20 00:51:27;;;;;;;96.20;36.03;;;3.20;99.90;;;;;;4966472;28;20757;-57
2022/11/20 00:53:56;;;;;;;96.07;34.70;;;3.20;99.90;;;;;;4982428;28;20198;-56
2022/11/20 00:56:25;;;;;;;88.47;33.30;;;3.20;99.90;;;;;;4969144;28;20256;-57
2022/11/20 00:58:55;;;;;;;108.40;35.90;;;3.30;99.90;;;;;;4976026;28;20210;-56
2022/11/20 01:01:25;;;;;;;113.47;37.13;;;3.30;99.90;;;;;;4978325;28;20202;-56
2022/11/20 01:03:55;;;;;;;104.30;36.10;;;3.40;99.90;;;;;;4982176;28;20230;-56
2022/11/20 01:06:29;;;;;;;97.67;35.27;;;3.40;99.90;;;;;;4989774;28;20194;-57
2022/11/20 01:08:59;;;;;;;96.27;35.23;;;3.40;99.90;;;;;;4980154;28;20352;-56
2022/11/20 01:11:29;;;;;;;95.63;35.83;;;3.40;99.90;;;;;;4974659;28;20197;-56
2022/11/20 01:14:01;;;;;;;95.80;35.73;;;3.40;99.90;;;;;;4979516;28;20195;-55
2022/11/20 01:16:31;;;;;;;92.77;34.30;;;3.40;99.90;;;;;;4982503;28;20390;-57
2022/11/20 01:19:02;;;;;;;97.07;35.07;;;3.50;99.90;;;;;;4980125;28;20238;-57
2022/11/20 01:21:32;;;;;;;90.43;34.00;;;3.40;99.90;;;;;;4970819;28;20670;-56
2022/11/20 01:24:01;;;;;;;94.47;35.20;;;3.40;99.90;;;;;;4974028;28;20199;-57
2022/11/20 01:26:32;;;;;;;94.73;37.97;;;3.30;99.90;;;;;;4964675;28;20332;-57
2022/11/20 01:29:02;;;;;;;112.60;37.23;;;3.30;99.90;;;;;;4978293;28;20672;-57
2022/11/20 01:31:32;;;;;;;93.87;36.07;;;3.30;99.90;;;;;;4974490;28;20199;-56
2022/11/20 01:34:02;;;;;;;105.80;38.13;;;3.30;99.90;;;;;;4978539;28;20509;-57
2022/11/20 01:36:32;;;;;;;103.33;35.43;;;3.30;99.90;;;;;;4973169;28;20207;-55
2022/11/20 01:39:03;;;;;;;93.43;33.87;;;3.40;99.90;;;;;;4965400;28;20214;-57
2022/11/20 01:44:23;;;;;;;101.20;34.93;;;3.40;99.90;;;;;;4974455;28;20662;-56
2022/11/20 01:47:01;;;;;;;93.17;34.23;;;3.40;99.90;;;;;;4976581;28;20233;-56
2022/11/20 01:49:38;;;;;;;116.40;36.97;;;3.50;99.90;;;;;;4973634;28;20202;-56
2022/11/20 01:52:18;;;;;;;111.27;35.80;;;3.50;99.90;;;;;;5007286;28;20246;-57
2022/11/20 01:54:51;;;;;;;115.43;36.90;;;3.50;99.90;;;;;;4979084;28;20215;-55
2022/11/20 01:57:22;;;;;;;99.50;35.73;;;3.50;99.90;;;;;;4966730;28;20211;-56
2022/11/20 01:59:56;;;;;;;104.43;36.27;;;3.50;99.90;;;;;;4971257;28;20206;-57
2022/11/20 02:02:26;;;;;;;106.67;36.40;;;3.50;99.90;;;;;;4966364;28;20218;-56
2022/11/20 02:04:57;;;;;;;107.20;35.47;;;3.50;99.90;;;;;;4973818;28;20407;-56
2022/11/20 02:07:26;;;;;;;107.07;36.10;;;3.50;99.90;;;;;;5010808;28;20557;-56
2022/11/20 02:09:54;;;;;;;105.03;36.33;;;3.60;99.90;;;;;;4972744;28;20697;-56
2022/11/20 02:15:13;;;;;;;119.13;38.17;;;3.50;99.90;;;;;;4978475;28;20578;-57
2022/11/20 02:17:41;;;;;;;114.73;38.23;;;3.50;99.90;;;;;;4973674;28;20571;-56
2022/11/20 02:20:10;;;;;;;118.73;37.27;;;3.50;99.90;;;;;;5060354;28;20248;-56
2022/11/20 02:22:49;;;;;;;104.90;35.80;;;3.40;99.90;;;;;;4967013;28;20206;-57
2022/11/20 02:25:20;;;;;;;121.60;36.67;;;3.50;99.90;;;;;;4977064;28;20213;-56
2022/11/20 02:27:49;;;;;;;117.07;36.37;;;3.50;99.90;;;;;;4973738;28;20200;-55
2022/11/20 02:30:18;;;;;;;117.50;36.93;;;3.50;99.90;;;;;;4972939;28;20225;-57
2022/11/20 02:32:46;;;;;;;119.43;36.07;;;3.50;99.90;;;;;;4973545;28;20233;-56
2022/11/20 02:35:41;;;;;;;102.50;35.23;;;3.50;99.90;;;;;;4967947;28;20214;-56
2022/11/20 02:38:09;;;;;;;119.53;36.67;;;3.50;99.90;;;;;;4963152;28;20208;-57
2022/11/20 02:40:39;;;;;;;106.47;35.10;;;3.50;99.90;;;;;;4970498;28;20319;-54
2022/11/20 02:43:08;;;;;;;107.77;37.83;;;3.50;99.90;;;;;;4978034;28;20195;-57
2022/11/20 02:45:37;;;;;;;113.57;37.23;;;3.50;99.90;;;;;;4972957;28;20202;-57
2022/11/20 02:48:08;;;;;;;106.60;36.37;;;3.50;99.90;;;;;;4976789;28;20202;-56
2022/11/20 02:50:39;;;;;;;114.13;38.17;;;3.50;99.90;;;;;;4970361;28;20214;-57
2022/11/20 02:53:08;;;;;;;111.43;35.93;;;3.50;99.90;;;;;;4981214;28;20218;-57
2022/11/20 02:55:37;;;;;;;110.13;35.77;;;3.60;99.90;;;;;;4968883;28;20222;-55
2022/11/20 02:58:06;;;;;;;114.13;34.93;;;3.60;99.90;;;;;;4965572;28;20207;-57
2022/11/20 03:00:35;;;;;;;109.47;34.73;;;3.60;99.90;;;;;;4991929;28;20199;-56
2022/11/20 03:03:03;;;;;;;116.53;37.13;;;3.60;99.90;;;;;;4971338;28;20753;-57
2022/11/20 03:05:31;;;;;;;109.03;35.80;;;3.60;99.90;;;;;;4968150;28;20199;-55
2022/11/20 03:08:00;;;;;;;106.70;35.10;;;3.60;99.90;;;;;;4973210;28;20252;-57
2022/11/20 03:10:28;;;;;;;106.67;35.97;;;3.60;99.90;;;;;;4966361;28;20200;-56
2022/11/20 03:12:57;;;;;;;119.40;36.60;;;3.60;99.90;;;;;;4970038;28;20271;-55
2022/11/20 03:15:27;;;;;;;109.97;36.53;;;3.60;99.90;;;;;;4966941;28;20246;-56
2022/11/20 03:17:55;;;;;;;107.87;35.50;;;3.60;99.90;;;;;;4967197;28;20248;-55
2022/11/20 03:20:24;;;;;;;106.70;36.23;;;3.60;99.90;;;;;;4966098;28;20422;-56
2022/11/20 03:22:54;;;;;;;110.43;37.23;;;3.70;99.90;;;;;;4985657;28;20204;-56
2022/11/20 03:25:23;;;;;;;104.20;34.33;;;3.70;99.90;;;;;;4984904;28;20549;-57
2022/11/20 03:27:51;;;;;;;112.73;35.80;;;3.70;99.90;;;;;;4980841;28;20218;-55
2022/11/20 03:30:20;;;;;;;115.77;34.73;;;3.70;99.90;;;;;;4976641;28;20411;-57
2022/11/20 03:32:55;;;;;;;113.33;36.37;;;3.70;99.90;;;;;;4969930;28;20415;-55
2022/11/20 03:35:24;;;;;;;99.80;34.43;;;3.70;99.90;;;;;;4978217;28;20215;-57
2022/11/20 03:37:52;;;;;;;102.47;35.10;;;3.70;99.90;;;;;;4977801;28;20211;-57
2022/11/20 03:40:20;;;;;;;115.57;36.13;;;3.70;99.90;;;;;;4979425;28;20568;-57
2022/11/20 03:42:49;;;;;;;115.67;35.33;;;3.70;99.90;;;;;;4978690;28;20195;-57
2022/11/20 03:45:18;;;;;;;100.87;33.97;;;3.70;99.90;;;;;;4977498;28;20231;-57
2022/11/20 03:47:47;;;;;;;94.77;33.30;;;3.80;99.90;;;;;;4981087;28;20596;-56
2022/11/20 03:50:17;;;;;;;102.43;34.20;;;3.80;99.90;;;;;;4965915;28;20204;-57
2022/11/20 03:52:46;;;;;;;98.60;33.63;;;3.80;99.90;;;;;;4971645;28;20222;-56
2022/11/20 03:55:14;;;;;;;103.67;34.63;;;3.80;99.90;;;;;;4977824;28;20196;-56
2022/11/20 03:57:42;;;;;;;98.43;33.93;;;3.80;99.90;;;;;;5006177;28;20199;-57
2022/11/20 04:00:12;;;;;;;95.87;33.40;;;3.80;99.90;;;;;;4979061;28;20199;-57
2022/11/20 04:02:40;;;;;;;97.07;34.37;;;3.80;99.90;;;;;;4989327;28;21621;-56
2022/11/20 04:05:09;;;;;;;103.37;32.63;;;3.90;99.90;;;;;;4974892;28;20203;-56
2022/11/20 04:07:38;;;;;;;93.27;33.03;;;3.90;99.90;;;;;;4968493;28;20208;-57
2022/11/20 04:10:07;;;;;;;92.87;31.27;;;3.90;99.90;;;;;;4992296;28;20264;-56
2022/11/20 04:12:36;;;;;;;99.83;32.97;;;3.90;99.90;;;;;;4973752;28;20199;-57
2022/11/20 04:15:05;;;;;;;85.70;32.13;;;3.90;99.90;;;;;;4976357;28;20187;-56
2022/11/20 04:17:33;;;;;;;91.53;32.57;;;3.90;99.90;;;;;;4969437;28;20215;-57
2022/11/20 04:20:02;;;;;;;99.80;33.30;;;3.90;99.90;;;;;;4989946;28;20577;-56
2022/11/20 04:22:30;;;;;;;93.63;34.70;;;3.90;99.90;;;;;;4979347;28;20206;-55
2022/11/20 04:25:00;;;;;;;97.63;33.60;;;3.90;99.90;;;;;;4980971;28;20199;-57
2022/11/20 04:27:28;;;;;;;104.60;35.47;;;3.80;99.90;;;;;;4971899;28;20187;-56
2022/11/20 04:29:58;;;;;;;92.73;33.97;;;3.80;99.90;;;;;;4967210;28;20218;-56
2022/11/20 04:32:26;;;;;;;97.53;33.37;;;3.80;99.90;;;;;;4971992;28;21014;-56
2022/11/20 04:34:54;;;;;;;98.73;33.97;;;3.90;99.90;;;;;;4980321;28;20205;-54
2022/11/20 04:37:22;;;;;;;97.30;33.20;;;3.90;99.90;;;;;;4973282;28;20555;-57
2022/11/20 04:39:51;;;;;;;102.67;34.10;;;3.90;99.90;;;;;;4974703;28;20401;-56
2022/11/20 04:42:30;;;;;;;104.73;34.83;;;4.00;99.90;;;;;;4970917;28;20293;-55
2022/11/20 04:44:58;;;;;;;107.27;33.33;;;4.00;99.90;;;;;;4984643;28;20199;-56
2022/11/20 04:47:27;;;;;;;99.97;35.10;;;3.90;99.90;;;;;;4976470;28;20203;-56
2022/11/20 04:49:55;;;;;;;106.07;33.63;;;3.90;99.90;;;;;;4973429;28;20276;-57
2022/11/20 04:52:24;;;;;;;106.07;34.23;;;3.90;99.90;;;;;;4969615;28;20223;-56
2022/11/20 04:54:53;;;;;;;102.70;33.03;;;4.00;99.90;;;;;;4976382;28;20211;-55
2022/11/20 04:57:23;;;;;;;105.80;32.60;;;4.00;99.90;;;;;;4973890;28;20211;-54
2022/11/20 04:59:51;;;;;;;111.23;33.40;;;4.00;99.90;;;;;;4972400;28;20859;-56
2022/11/20 05:02:20;;;;;;;93.17;33.27;;;4.00;99.90;;;;;;4969884;28;20191;-56
2022/11/20 05:04:49;;;;;;;110.53;35.73;;;4.10;99.90;;;;;;4979691;28;20618;-57
2022/11/20 05:07:18;;;;;;;104.70;33.63;;;4.10;99.90;;;;;;4967998;28;20208;-58
2022/11/20 05:09:46;;;;;;;114.03;34.90;;;4.10;99.90;;;;;;4973005;28;20287;-57
2022/11/20 05:12:14;;;;;;;109.17;34.13;;;4.10;99.90;;;;;;4972035;28;20541;-57
2022/11/20 05:14:44;;;;;;;113.53;35.47;;;4.10;99.90;;;;;;4968634;28;20542;-57
2022/11/20 05:17:14;;;;;;;110.27;34.03;;;4.10;99.90;;;;;;4976359;28;20207;-56
2022/11/20 05:19:42;;;;;;;119.50;36.20;;;4.20;99.90;;;;;;4974655;28;20230;-56
2022/11/20 05:22:10;;;;;;;117.60;34.33;;;4.20;99.90;;;;;;4971442;28;20324;-55
2022/11/20 05:24:39;;;;;;;119.97;34.53;;;4.20;99.90;;;;;;4972061;28;20200;-55
2022/11/20 05:27:07;;;;;;;123.03;35.73;;;4.10;99.90;;;;;;4971676;28;20573;-56
2022/11/20 05:29:35;;;;;;;121.67;34.30;;;4.20;99.90;;;;;;4976107;28;20754;-54
2022/11/20 05:32:08;;;;;;;125.73;35.97;;;4.20;99.90;;;;;;4976845;28;20200;-55
2022/11/20 05:34:37;;;;;;;117.03;35.20;;;4.20;99.90;;;;;;4984069;28;20199;-56
2022/11/20 05:37:05;;;;;;;116.90;32.50;;;4.20;99.90;;;;;;4973225;28;20215;-57
2022/11/20 05:39:34;;;;;;;129.73;35.63;;;4.30;99.90;;;;;;4976868;28;20196;-54
2022/11/20 05:44:44;;;;;;;147.37;37.67;;;4.30;99.90;;;;;;4975740;28;20207;-57
2022/11/20 05:47:14;;;;;;;136.30;37.00;;;4.30;99.90;;;;;;4982192;28;20192;-55
2022/11/20 05:49:42;;;;;;;132.20;36.47;;;4.30;99.90;;;;;;4973724;28;20184;-56
2022/11/20 05:52:10;;;;;;;135.67;35.80;;;4.30;99.90;;;;;;4971614;28;20223;-56
2022/11/20 05:54:39;;;;;;;148.10;37.17;;;4.30;99.90;;;;;;4976132;28;20602;-57
2022/11/20 05:57:07;;;;;;;134.57;35.93;;;4.40;99.90;;;;;;4964880;28;20608;-57
2022/11/20 05:59:36;;;;;;;126.63;34.57;;;4.40;99.90;;;;;;5006321;28;20199;-56
2022/11/20 06:02:04;;;;;;;136.87;34.97;;;4.40;99.90;;;;;;4968688;28;20199;-56
2022/11/20 06:04:33;;;;;;;131.87;35.43;;;4.40;99.90;;;;;;4978011;28;20206;-56
2022/11/20 06:07:02;;;;;;;135.17;35.73;;;4.40;99.90;;;;;;4963613;28;20198;-57
2022/11/20 06:09:30;;;;;;;118.27;32.50;;;4.40;99.90;;;;;;4971439;28;20207;-55
2022/11/20 06:11:59;;;;;;;137.90;36.17;;;4.40;99.90;;;;;;4972818;28;20284;-56
2022/11/20 06:14:27;;;;;;;117.37;32.43;;;4.50;99.90;;;;;;4974377;28;20202;-57
2022/11/20 06:16:56;;;;;;;142.97;36.33;;;4.50;99.90;;;;;;4968562;28;20223;-57
2022/11/20 06:19:24;;;;;;;113.77;33.60;;;4.50;99.90;;;;;;4975344;28;20234;-56
2022/11/20 06:21:54;;;;;;;135.10;35.20;;;4.50;99.90;;;;;;4972202;28;20200;-56
2022/11/20 06:24:22;;;;;;;116.00;32.77;;;4.50;99.90;;;;;;4981475;28;20198;-56
2022/11/20 06:26:50;;;;;;;139.63;36.03;;;4.40;99.90;;;;;;4972515;28;20199;-56
2022/11/20 06:29:19;;;;;;;137.80;35.30;;;4.40;99.90;;;;;;4969776;28;20207;-56
2022/11/20 06:31:48;;;;;;;125.23;33.90;;;4.50;99.90;;;;;;4969155;28;20283;-56
2022/11/20 06:34:17;;;;;;;131.30;36.07;;;4.50;99.90;;;;;;4976858;28;20195;-55
2022/11/20 06:36:45;;;;;;;121.30;34.80;;;4.60;99.90;;;;;;4967425;28;20411;-56
2022/11/20 06:39:15;;;;;;;124.70;34.13;;;4.60;99.90;;;;;;4997175;28;20774;-57
2022/11/20 06:41:43;;;;;;;131.27;34.93;;;4.60;99.90;;;;;;4970595;28;20673;-56
2022/11/20 06:44:12;;;;;;;126.20;33.97;;;4.60;99.90;;;;;;4974877;28;20203;-57
2022/11/20 06:46:40;;;;;;;125.77;34.47;;;4.60;99.90;;;;;;4967304;28;20581;-57
2022/11/20 06:49:08;;;;;;;118.93;33.20;;;4.60;99.90;;;;;;4976120;28;20860;-57
2022/11/20 06:51:37;;;;;;;112.53;32.83;;;4.60;99.90;;;;;;4969348;28;20260;-55
2022/11/20 06:54:05;;;;;;;128.70;35.27;;;4.60;99.90;;;;;;4970616;28;20633;-56
2022/11/20 06:56:35;;;;;;;121.97;33.97;;;4.60;99.90;;;;;;4970298;28;20708;-57
2022/11/20 06:59:05;;;;;;;126.10;34.40;;;4.60;99.90;;;;;;4995734;28;20221;-57
2022/11/20 07:01:34;;;;;;;133.13;37.40;;;4.70;99.90;;;;;;4951972;28;20761;-57
2022/11/20 07:04:03;;;;;;;151.83;45.60;;;4.70;99.90;;;;;;4977179;28;20201;-57
2022/11/20 07:06:32;;;;;;;148.13;46.10;;;4.70;99.90;;;;;;4973505;28;20203;-57
2022/11/20 07:09:01;;;;;;;135.10;41.30;;;4.70;99.90;;;;;;4967592;28;20202;-57
2022/11/20 07:11:29;;;;;;;143.73;40.77;;;4.70;99.90;;;;;;5003526;28;20221;-55
2022/11/20 07:13:59;;;;;;;135.57;40.17;;;4.70;99.90;;;;;;4971316;28;20371;-57
2022/11/20 07:16:27;;;;;;;134.90;40.67;;;4.70;99.90;;;;;;4972426;28;20568;-56
2022/11/20 07:18:56;;;;;;;134.67;39.23;;;4.70;99.90;;;;;;4974271;28;20585;-58
2022/11/20 07:21:24;;;;;;;136.00;39.80;;;4.70;99.90;;;;;;4973693;28;20203;-56
2022/11/20 07:23:52;;;;;;;138.33;42.20;;;4.70;99.90;;;;;;4979652;28;20198;-56
2022/11/20 07:26:21;;;;;;;127.27;40.70;;;4.80;99.90;;;;;;4977296;28;20194;-57
2022/11/20 07:28:49;;;;;;;134.70;40.10;;;4.80;99.90;;;;;;4964327;28;20216;-57
2022/11/20 07:31:19;;;;;;;137.83;40.03;;;4.80;99.90;;;;;;4971909;28;20203;-56
2022/11/20 07:33:48;;;;;;;117.67;33.90;;;4.70;99.90;;;;;;4984899;28;20206;-57
2022/11/20 07:36:16;;;;;;;121.87;39.20;;;4.80;99.90;;;;;;4983866;28;20198;-57
2022/11/20 07:38:44;;;;;;;111.27;34.47;;;4.80;99.90;;;;;;4974341;28;20553;-56
2022/11/20 07:41:12;;;;;;;121.43;35.67;;;4.80;99.90;;;;;;4978493;28;20195;-55
2022/11/20 07:43:41;;;;;;;121.40;37.77;;;4.90;99.90;;;;;;4978730;28;20502;-57
2022/11/20 07:46:09;;;;;;;134.07;38.80;;;5.00;99.90;;;;;;4967757;28;20212;-57
2022/11/20 07:48:39;;;;;;;121.17;37.33;;;5.00;99.90;;;;;;4982730;28;20218;-56
2022/11/20 07:51:07;;;;;;;102.47;32.23;;;5.00;99.90;;;;;;4968093;28;20422;-55
2022/11/20 07:53:37;;;;;;;107.67;31.93;;;5.00;99.90;;;;;;4983004;28;20190;-57
2022/11/20 07:56:07;;;;;;;104.90;32.03;;;5.00;99.90;;;;;;4976218;28;20209;-56
2022/11/20 07:58:35;;;;;;;106.80;31.87;;;5.00;99.90;;;;;;4969506;28;20222;-56
2022/11/20 08:01:04;;;;;;;106.00;31.00;;;5.10;99.90;;;;;;4981829;28;20575;-57
2022/11/20 08:03:33;;;;;;;100.33;32.00;;;5.10;99.90;;;;;;4977665;28;20237;-57
2022/11/20 08:06:03;;;;;;;112.77;33.47;;;5.10;99.90;;;;;;4974540;28;20200;-57
2022/11/20 08:08:31;;;;;;;111.90;32.03;;;5.20;99.90;;;;;;4973060;28;20657;-55
2022/11/20 08:16:31;;;;;;;123.40;40.43;;;5.30;99.90;;;;;;4986796;28;20199;-57
2022/11/20 08:18:59;;;;;;;116.70;38.53;;;5.30;99.90;;;;;;4997661;28;20242;-57
2022/11/20 08:21:28;;;;;;;97.80;29.13;;;5.30;99.90;;;;;;4978094;28;20237;-57
2022/11/20 08:24:05;;;;;;;113.73;34.80;;;5.40;99.90;;;;;;4973765;28;20717;-57
2022/11/20 08:26:34;;;;;;;99.37;31.20;;;5.40;99.90;;;;;;4971390;28;20225;-57
2022/11/20 08:29:02;;;;;;;94.47;29.93;;;5.40;99.90;;;;;;4972354;28;20207;-56
2022/11/20 08:31:30;;;;;;;96.90;29.33;;;5.40;99.90;;;;;;4974167;28;20601;-57
2022/11/20 08:33:59;;;;;;;111.13;31.80;;;5.50;99.90;;;;;;5006696;28;20209;-55
2022/11/20 08:36:28;;;;;;;100.63;32.13;;;5.50;99.90;;;;;;4973715;28;20535;-56
2022/11/20 08:38:57;;;;;;;89.47;29.70;;;5.50;99.90;;;;;;4974032;28;20219;-55
2022/11/20 08:41:25;;;;;;;101.43;33.57;;;5.60;99.90;;;;;;4976167;28;20199;-57
2022/11/20 08:43:59;;;;;;;95.17;30.20;;;5.60;99.90;;;;;;4980539;28;20222;-56
2022/11/20 08:46:31;;;;;;;90.07;29.70;;;5.70;99.90;;;;;;4973315;28;20192;-57
2022/11/20 08:49:00;;;;;;;97.97;31.93;;;5.70;99.90;;;;;;4977497;28;20205;-57
2022/11/20 08:51:30;;;;;;;100.93;31.17;;;5.70;99.90;;;;;;4980251;28;20309;-57
2022/11/20 08:53:59;;;;;;;90.17;30.20;;;5.70;99.90;;;;;;4982363;28;20225;-57
2022/11/20 08:56:27;;;;;;;91.20;28.47;;;5.70;99.90;;;;;;4981114;28;20971;-56
2022/11/20 08:58:56;;;;;;;92.70;28.87;;;5.80;99.90;;;;;;4980141;28;20766;-57
2022/11/20 09:01:44;;;;;;;85.57;27.27;;;5.80;99.90;;;;;;4978564;28;20239;-57
2022/11/20 09:04:14;;;;;;;96.43;26.80;;;5.80;99.90;;;;;;4988175;28;20199;-57
2022/11/20 09:06:43;;;;;;;85.07;26.57;;;5.90;99.90;;;;;;4973673;28;20301;-57
2022/11/20 09:09:12;;;;;;;79.67;26.40;;;5.90;99.90;;;;;;4972422;28;20194;-57
2022/11/20 09:11:40;;;;;;;78.87;26.60;;;6.00;99.90;;;;;;4971703;28;20203;-57
2022/11/20 09:14:08;;;;;;;85.47;25.23;;;6.00;99.90;;;;;;4977988;28;20210;-56
2022/11/20 09:16:37;;;;;;;85.47;25.10;;;6.10;99.90;;;;;;4972296;28;20206;-56
2022/11/20 09:19:05;;;;;;;80.40;25.67;;;6.10;99.90;;;;;;4975478;28;20238;-57
2022/11/20 09:21:55;;;;;;;76.53;24.43;;;6.10;99.90;;;;;;4982828;28;20199;-57
2022/11/20 09:24:27;;;;;;;72.13;24.37;;;6.20;99.90;;;;;;4992101;28;20650;-56
2022/11/20 09:26:56;;;;;;;77.40;24.53;;;6.20;99.90;;;;;;4979454;28;20202;-57
2022/11/20 09:29:24;;;;;;;67.20;24.27;;;6.30;99.90;;;;;;4976802;28;20197;-56
2022/11/20 09:31:52;;;;;;;75.83;25.07;;;6.30;99.90;;;;;;4977743;28;20207;-56
2022/11/20 09:34:21;;;;;;;71.60;24.60;;;6.40;99.90;;;;;;4976050;28;20206;-57
2022/11/20 09:36:49;;;;;;;69.70;24.03;;;6.40;99.90;;;;;;4978943;28;20203;-57
2022/11/20 09:39:19;;;;;;;64.97;24.13;;;6.40;99.90;;;;;;4977035;28;20752;-56
2022/11/20 09:42:10;;;;;;;66.57;25.53;;;6.50;99.90;;;;;;4978537;28;20539;-57
2022/11/20 09:44:56;;;;;;;61.33;25.23;;;6.50;99.90;;;;;;4972427;28;20204;-57
2022/11/20 09:47:37;;;;;;;68.87;24.97;;;6.60;99.90;;;;;;4970370;28;20657;-56
2022/11/20 09:50:23;;;;;;;66.70;25.03;;;6.60;99.90;;;;;;4974837;28;20705;-57
2022/11/20 09:53:05;;;;;;;70.27;25.93;;;6.70;99.90;;;;;;4970631;28;20230;-57
2022/11/20 09:55:38;;;;;;;53.80;20.87;;;6.70;99.90;;;;;;4972933;28;20593;-57
2022/11/20 09:58:07;;;;;;;62.07;27.87;;;6.70;99.90;;;;;;4972533;28;20203;-57
2022/11/20 10:00:38;;;;;;;57.93;21.10;;;6.80;99.90;;;;;;4971332;28;20217;-56
2022/11/20 10:03:15;;;;;;;45.83;19.23;;;6.80;99.90;;;;;;4969797;28;20245;-58
2022/11/20 10:05:46;;;;;;;46.10;18.63;;;6.90;99.90;;;;;;4976804;28;20202;-54
2022/11/20 10:08:20;;;;;;;36.40;16.87;;;7.00;99.90;;;;;;4975314;28;20719;-57
2022/11/20 10:10:54;;;;;;;42.17;16.60;;;7.00;99.90;;;;;;4969054;28;20672;-57
2022/11/20 10:13:36;;;;;;;35.80;16.90;;;7.10;99.90;;;;;;4994583;28;20193;-57
2022/11/20 10:16:18;;;;;;;27.67;15.27;;;7.20;99.90;;;;;;4973730;28;20203;-56
2022/11/20 10:19:00;;;;;;;25.83;13.53;;;7.40;99.90;;;;;;4971476;28;20219;-57
2022/11/20 10:21:38;;;;;;;26.80;14.27;;;7.50;99.90;;;;;;4971707;28;20202;-56
2022/11/20 10:24:25;;;;;;;28.50;14.47;;;7.60;99.90;;;;;;4977873;28;20214;-55
2022/11/20 10:27:04;;;;;;;31.97;17.87;;;7.70;99.90;;;;;;4968172;28;20681;-55
2022/11/20 10:29:35;;;;;;;28.23;14.10;;;7.80;99.90;;;;;;4973978;28;20195;-57
2022/11/20 10:32:08;;;;;;;24.83;13.07;;;8.00;99.90;;;;;;4973362;28;20196;-57
2022/11/20 10:34:47;;;;;;;27.07;15.93;;;8.10;99.90;;;;;;4984549;28;20199;-55
2022/11/20 10:37:19;;;;;;;23.00;13.93;;;8.10;99.90;;;;;;4973982;28;20199;-55
2022/11/20 10:39:54;;;;;;;19.30;11.20;;;8.10;99.90;;;;;;4979837;28;20918;-57
2022/11/20 10:42:31;;;;;;;21.83;11.73;;;8.20;99.90;;;;;;4980755;28;20309;-56
2022/11/20 10:45:05;;;;;;;15.13;9.17;;;8.20;99.90;;;;;;5009227;28;20199;-57
2022/11/20 10:47:34;;;;;;;14.67;8.17;;;8.20;99.90;;;;;;4973776;28;20198;-55
2022/11/20 10:50:06;;;;;;;15.10;10.00;;;8.20;99.90;;;;;;4985588;28;20952;-56
2022/11/20 10:52:46;;;;;;;9.80;7.47;;;8.20;99.90;;;;;;4971522;28;21368;-56
2022/11/20 10:55:26;;;;;;;14.77;9.90;;;8.20;99.90;;;;;;4977958;28;20190;-56
2022/11/20 10:58:02;;;;;;;13.63;8.47;;;8.30;99.90;;;;;;4995568;28;20210;-57
2022/11/20 11:00:32;;;;;;;17.07;10.57;;;8.20;99.90;;;;;;4970523;28;20710;-58
2022/11/20 11:03:25;;;;;;;9.27;6.23;;;8.20;99.90;;;;;;4974806;28;20816;-57
2022/11/20 11:06:00;;;;;;;17.93;13.50;;;8.20;99.90;;;;;;5007146;28;20210;-57
2022/11/20 11:08:36;;;;;;;21.87;15.27;;;8.20;99.90;;;;;;4969096;28;20199;-56
2022/11/20 11:11:19;;;;;;;13.10;10.07;;;8.30;99.90;;;;;;4972493;28;20305;-54
2022/11/20 11:13:48;;;;;;;15.37;10.77;;;8.20;99.90;;;;;;4973861;28;20241;-55
2022/11/20 11:16:25;;;;;;;17.53;12.20;;;8.20;99.90;;;;;;4974892;28;20203;-58
2022/11/20 11:19:04;;;;;;;22.90;14.97;;;8.20;99.90;;;;;;4993827;28;20203;-57
2022/11/20 11:21:33;;;;;;;13.83;9.30;;;8.30;99.90;;;;;;4971905;28;20207;-57
2022/11/20 11:24:03;;;;;;;13.10;7.23;;;8.30;99.90;;;;;;4981237;28;20195;-57
2022/11/20 11:26:58;;;;;;;15.50;5.33;;;8.30;99.90;;;;;;4974371;28;20242;-57
2022/11/20 11:29:30;;;;;;;11.03;5.83;;;8.30;99.90;;;;;;5006212;28;20190;-57
2022/11/20 11:32:06;;;;;;;7.97;5.63;;;8.30;99.90;;;;;;4969755;28;20200;-55
2022/11/20 11:34:35;;;;;;;9.50;7.50;;;8.30;99.90;;;;;;4984369;28;20240;-55
2022/11/20 11:37:04;;;;;;;6.33;4.13;;;8.30;99.90;;;;;;4969034;28;20245;-56
2022/11/20 11:39:34;;;;;;;11.63;6.87;;;8.30;99.90;;;;;;5006688;28;20218;-55
2022/11/20 11:42:02;;;;;;;9.97;7.93;;;8.30;99.90;;;;;;4975228;28;20203;-55
2022/11/20 11:47:24;;;;;;;6.80;5.57;;;8.30;99.90;;;;;;4969793;28;20198;-57
2022/11/20 11:50:02;;;;;;;5.77;5.20;;;8.30;99.90;;;;;;4985115;28;20211;-56
2022/11/20 11:52:34;;;;;;;8.67;6.60;;;8.20;99.90;;;;;;4972776;28;20203;-58
2022/11/20 11:55:10;;;;;;;5.57;4.40;;;8.20;99.90;;;;;;4975423;28;20314;-54
2022/11/20 11:57:47;;;;;;;9.20;5.20;;;8.10;99.90;;;;;;4998848;28;20193;-55
2022/11/20 12:00:18;;;;;;;10.07;6.00;;;7.90;99.90;;;;;;4978389;28;20233;-56
2022/11/20 12:03:01;;;;;;;11.73;7.40;;;7.80;99.90;;;;;;4974144;28;20195;-57
2022/11/20 12:05:36;;;;;;;10.03;5.80;;;7.70;99.90;;;;;;4973260;28;20273;-57
2022/11/20 12:08:13;;;;;;;15.40;7.50;;;7.70;99.90;;;;;;4975746;28;20198;-58
2022/11/20 12:10:46;;;;;;;8.77;5.67;;;7.60;99.90;;;;;;4966746;28;20201;-57
2022/11/20 12:13:31;;;;;;;8.97;6.60;;;7.50;99.90;;;;;;4967265;28;20503;-56
2022/11/20 12:16:01;;;;;;;11.53;6.77;;;7.50;99.90;;;;;;4968058;28;20206;-56
2022/11/20 12:18:30;;;;;;;10.67;7.27;;;7.50;99.90;;;;;;4970326;28;20204;-57
2022/11/20 12:21:10;;;;;;;14.10;6.90;;;7.50;99.90;;;;;;4973033;28;20231;-57
2022/11/20 12:23:51;;;;;;;9.47;6.10;;;7.50;99.90;;;;;;4981590;28;20208;-57
2022/11/20 12:26:40;;;;;;;10.57;7.27;;;7.50;99.90;;;;;;4970902;28;20191;-57
2022/11/20 12:29:14;;;;;;;12.43;8.20;;;7.50;99.90;;;;;;4975690;28;20202;-56
2022/11/20 12:31:56;;;;;;;9.87;4.83;;;7.60;99.90;;;;;;4981694;28;20198;-57
2022/11/20 12:34:44;;;;;;;16.47;7.87;;;7.60;99.90;;;;;;4973781;28;23832;-58
2022/11/20 12:37:24;;;;;;;10.03;5.20;;;7.60;99.90;;;;;;4966819;28;20314;-57
2022/11/20 12:39:59;;;;;;;10.23;5.27;;;7.60;99.90;;;;;;5005438;28;20218;-58
2022/11/20 12:45:53;;;;;;;9.90;5.17;;;7.70;99.90;;;;;;4969090;28;20210;-57
2022/11/20 12:48:48;;;;;;;9.40;4.83;;;7.70;99.90;;;;;;4974902;28;20208;-57
2022/11/20 12:51:33;;;;;;;13.70;5.97;;;7.70;99.90;;;;;;4974033;28;20225;-57
2022/11/20 12:54:37;;;;;;;7.57;5.00;;;7.70;99.90;;;;;;4977770;28;20222;-57
2022/11/20 12:57:14;;;;;;;7.40;5.07;;;7.70;99.90;;;;;;4971822;28;20548;-57
2022/11/20 13:00:03;;;;;;;10.20;5.43;;;7.70;99.90;;;;;;4997734;28;20190;-57
2022/11/20 13:02:45;;;;;;;6.27;5.43;;;7.70;99.90;;;;;;4973735;28;20206;-58
2022/11/20 13:05:21;;;;;;;8.60;5.60;;;7.80;99.90;;;;;;4996119;28;20195;-57
2022/11/20 13:07:53;;;;;;;5.60;5.07;;;7.90;99.90;;;;;;4996417;28;20237;-57
2022/11/20 13:10:29;;;;;;;5.53;4.70;;;7.90;99.90;;;;;;4972731;28;20194;-58
2022/11/20 13:13:04;;;;;;;5.30;4.27;;;7.80;99.90;;;;;;4972903;28;20199;-57
2022/11/20 13:15:48;;;;;;;10.57;4.67;;;7.80;99.90;;;;;;4978299;28;20199;-56